Weather History for Marion, IN

Change the Weather History Date:

Tuesday, December 18, 2012

  Actual Average (KMIE) Record (KMIE)
Temperature  
Mean Temperature 38 °F 30 °F  
Max Temperature 92 °F 37 °F 62 °F (1984)
Min Temperature 35 °F 23 °F -7 °F (1985)
Degree Days  
Heating Degree Days 28 35  
Month to date heating degree days 586  
Since 1 July heating degree days 1721  
Cooling Degree Days 0 0  
Month to date cooling degree days 0  
Year to date cooling degree days 956  
Moisture  
Dew Point 33 °F    
Average Humidity 87    
Maximum Humidity 95    
Minimum Humidity 77    
Precipitation  
Precipitation 0.00 in 0.09 in 0.56 in (1990)
Month to date precipitation 1.70  
Year to date precipitation 38.94  
Sea Level Pressure  
Sea Level Pressure 29.74 in    
Wind  
Wind Speed 8 mph (SW)    
Max Wind Speed 18 mph    
Max Gust Speed 23 mph    
Visibility 4 miles    
Events Rain , Snow    
T = Trace of Precipitation, MM = Missing Value Source: NWS Daily Summary

Daily Weather History Graph

Daily Weather History Graph

Search for Another Location

Airport:

Trip Planner

Search our weather history database for the weather conditions in past years. The results will help you decide how hot, cold, wet, or windy it might be!

Date:

Astronomy

Dec. 18, 2012 Rise Set
Actual Time 8:01 AM EST 5:18 PM EST
Civil Twilight 7:30 AM EST 5:48 PM EST
Nautical Twilight 6:55 AM EST 6:23 PM EST
Astronomical Twilight 6:22 AM EST 6:56 PM EST
Moon 11:39 AM EST (12/18) 11:44 PM EST (12/18)
Length of Visible Light 10h 18m
Length of Day
9h 16m
Waxing Crescent, 34% of the Moon is Illuminated
Dec 18
Waxing Crescent
Dec 20
First Quarter
Dec 28
Full
Jan 4
Last Quarter
Jan 11
New

Hourly Weather History & Observations

Time (EST) Temp. Windchill Dew Point Humidity Pressure Visibility Wind Dir Wind Speed Gust Speed Precip Events Conditions
12:15 AM 36.1 °F - 34.3 °F 93% 29.68 in 4.0 mi Calm Calm - N/A Rain Light Rain
12:35 AM 36.3 °F 32.5 °F 34.7 °F 94% 29.68 in 3.0 mi NNW 4.6 mph - N/A Rain Light Rain
12:55 AM 36.5 °F 31.0 °F 34.9 °F 94% 29.68 in 3.0 mi NNW 6.9 mph - N/A Rain Light Rain
1:15 AM 36.7 °F 31.2 °F 35.1 °F 94% 29.68 in 3.0 mi NNW 6.9 mph - N/A   Overcast
1:35 AM 36.9 °F 31.4 °F 34.9 °F 93% 29.69 in 3.0 mi NNW 6.9 mph - N/A Rain Light Rain
1:55 AM 36.7 °F 29.9 °F 35.1 °F 94% 29.69 in 3.0 mi NW 9.2 mph - N/A Snow Light Snow
2:15 AM 36.5 °F 30.3 °F 35.1 °F 95% 29.70 in 2.5 mi NW 8.1 mph - N/A Rain Light Rain
2:35 AM 36.5 °F 31.0 °F 35.1 °F 95% 29.71 in 4.0 mi NW 6.9 mph - N/A Rain Light Rain
2:55 AM 36.5 °F 29.7 °F 35.1 °F 95% 29.71 in 4.0 mi NW 9.2 mph - N/A   Overcast
3:15 AM 36.5 °F 30.3 °F 34.9 °F 94% 29.72 in 5.0 mi NW 8.1 mph - N/A   Overcast
3:35 AM 36.1 °F 30.6 °F 34.3 °F 93% 29.72 in 7.0 mi NNW 6.9 mph - N/A   Overcast
3:55 AM 36.0 °F 31.1 °F 34.3 °F 94% 29.72 in 2.5 mi NW 5.8 mph - N/A   Overcast
4:15 AM 35.8 °F 30.1 °F 34.2 °F 94% 29.73 in 3.0 mi WNW 6.9 mph - N/A   Overcast
4:35 AM 35.8 °F 30.1 °F 34.3 °F 94% 29.73 in 4.0 mi WNW 6.9 mph - N/A   Overcast
4:55 AM 35.8 °F 28.8 °F 34.3 °F 94% 29.74 in 5.0 mi WNW 9.2 mph - N/A   Overcast
5:15 AM 35.6 °F 28.6 °F 34.2 °F 94% 29.74 in 5.0 mi WNW 9.2 mph - N/A   Overcast
5:35 AM 35.6 °F 28.0 °F 34.2 °F 94% 29.75 in 4.0 mi WNW 10.4 mph - N/A   Overcast
5:55 AM 35.6 °F 28.6 °F 34.0 °F 94% 29.75 in 3.0 mi WNW 9.2 mph - N/A   Overcast
6:15 AM 35.2 °F 28.8 °F 33.6 °F 94% 29.76 in 2.5 mi West 8.1 mph - N/A Snow Light Snow
6:35 AM 35.4 °F 27.8 °F 33.8 °F 94% 29.77 in 2.0 mi West 10.4 mph - N/A Snow Light Snow
6:55 AM 35.2 °F 28.8 °F 33.8 °F 94% 29.78 in 3.0 mi West 8.1 mph - N/A   Overcast
7:15 AM 35.2 °F 27.6 °F 33.8 °F 94% 29.78 in 3.0 mi West 10.4 mph - N/A   Overcast
7:35 AM 35.1 °F 28.6 °F 33.8 °F 95% 29.79 in 3.0 mi West 8.1 mph - N/A   Overcast
7:55 AM 35.1 °F 29.3 °F 33.8 °F 95% 29.80 in 2.5 mi West 6.9 mph - N/A Snow Light Snow
8:15 AM 35.1 °F 30.1 °F 33.8 °F 95% 29.80 in 1.5 mi West 5.8 mph - N/A Snow Light Snow
8:35 AM 35.1 °F 29.3 °F 33.8 °F 95% 29.81 in 1.8 mi WSW 6.9 mph - N/A   Overcast
8:55 AM 35.2 °F 29.5 °F 33.8 °F 94% 29.82 in 2.5 mi West 6.9 mph - N/A   Overcast
9:15 AM 35.2 °F 28.8 °F 33.8 °F 94% 29.82 in 2.5 mi WSW 8.1 mph - N/A   Overcast
9:35 AM 35.6 °F 28.0 °F 33.8 °F 93% 29.83 in 1.5 mi West 10.4 mph - N/A   Overcast
9:55 AM 35.6 °F 28.6 °F 33.1 °F 91% 29.82 in 2.0 mi West 9.2 mph - N/A   Overcast
10:15 AM 35.8 °F 29.4 °F 31.6 °F 85% 29.82 in 3.0 mi WSW 8.1 mph - N/A   Haze
10:55 AM 35.8 °F 27.3 °F 30.9 °F 82% 29.83 in 5.0 mi SW 12.7 mph - N/A   Haze
11:15 AM 36.0 °F 27.5 °F 31.1 °F 82% 29.83 in 4.0 mi SW 12.7 mph - N/A   Haze
11:35 AM 36.1 °F 28.2 °F 31.1 °F 82% 29.82 in 4.0 mi SW 11.5 mph - N/A   Haze
11:55 AM 36.5 °F 28.7 °F 31.1 °F 81% 29.83 in 10.0 mi SSW 11.5 mph 16.1 mph N/A   Overcast
12:15 PM 36.7 °F 28.9 °F 31.3 °F 81% 29.83 in 10.0 mi SW 11.5 mph - N/A   Overcast
12:35 PM 36.9 °F 29.6 °F 31.3 °F 80% 29.82 in 5.0 mi SSW 10.4 mph - N/A   Haze
12:55 PM 37.6 °F 28.8 °F 31.8 °F 80% 29.81 in 4.0 mi SW 15.0 mph - N/A   Haze
1:15 PM 38.3 °F 31.4 °F 32.2 °F 79% 29.80 in 7.0 mi SSW 10.4 mph - N/A   Overcast
1:35 PM 38.7 °F 30.9 °F 32.0 °F 77% 29.78 in 7.0 mi SSW 12.7 mph 16.1 mph N/A   Overcast
1:55 PM 38.5 °F 31.1 °F 32.0 °F 78% 29.77 in 1.5 mi South 11.5 mph - N/A   Unknown
2:15 PM 38.5 °F 30.3 °F 32.5 °F 79% 29.76 in 3.0 mi South 13.8 mph - N/A   Unknown
2:35 PM 38.5 °F 30.3 °F 32.2 °F 78% 29.75 in 3.0 mi South 13.8 mph - N/A   Haze
2:55 PM 38.7 °F 29.5 °F 32.5 °F 79% 29.75 in 10.0 mi South 17.3 mph 23.0 mph N/A   Overcast
3:15 PM 38.5 °F 29.6 °F 32.7 °F 80% 29.73 in 7.0 mi South 16.1 mph 21.9 mph N/A   Overcast
3:35 PM 38.5 °F 29.9 °F 32.7 °F 80% 29.74 in 5.0 mi South 15.0 mph - N/A   Haze
3:55 PM 38.5 °F 30.7 °F 32.7 °F 80% 29.72 in 4.0 mi South 12.7 mph 21.9 mph N/A   Haze
4:15 PM 38.3 °F 30.1 °F 33.1 °F 81% 29.72 in 4.0 mi South 13.8 mph - N/A   Haze
4:35 PM 38.3 °F 28.7 °F 33.1 °F 81% 29.68 in 2.5 mi SSE 18.4 mph - N/A   Haze
4:55 PM 37.9 °F 29.6 °F 33.1 °F 83% 29.67 in 4.0 mi SSE 13.8 mph - N/A   Haze
5:15 PM 37.6 °F 28.4 °F 32.9 °F 83% 29.67 in 2.0 mi SSE 16.1 mph - N/A   Haze
5:35 PM 37.6 °F 30.0 °F 32.9 °F 83% 29.68 in 2.5 mi South 11.5 mph - N/A Snow Light Snow
5:55 PM 37.6 °F 30.5 °F 32.9 °F 83% 29.70 in 5.0 mi South 10.4 mph - N/A Snow Light Snow
6:15 PM 37.2 °F 30.0 °F 32.9 °F 84% 29.69 in 7.0 mi South 10.4 mph - N/A   Scattered Clouds
6:35 PM 37.0 °F 33.3 °F 32.9 °F 85% 29.71 in 5.0 mi South 4.6 mph - N/A Snow Light Snow
6:55 PM 36.5 °F 31.8 °F 32.2 °F 84% 29.71 in 7.0 mi South 5.8 mph - N/A Snow Light Snow
7:15 PM 35.8 °F 30.1 °F 32.0 °F 86% 29.72 in 7.0 mi South 6.9 mph - N/A   Clear
7:35 PM 35.4 °F 27.8 °F 32.2 °F 88% 29.71 in 7.0 mi South 10.4 mph - N/A   Scattered Clouds
7:55 PM 36.7 °F 29.9 °F 32.9 °F 86% 29.71 in 4.0 mi South 9.2 mph - N/A Snow Light Snow
8:15 PM 37.0 °F 29.8 °F 33.1 °F 86% 29.71 in 4.0 mi South 10.4 mph - N/A Snow Light Snow
8:55 PM 37.8 °F 29.4 °F 33.6 °F 85% 29.70 in 7.0 mi South 13.8 mph - N/A   Overcast
9:15 PM 38.1 °F 30.7 °F 33.8 °F 84% 29.70 in 7.0 mi South 11.5 mph - N/A   Overcast
9:35 PM 38.5 °F 31.1 °F 33.8 °F 83% 29.70 in 10.0 mi SSW 11.5 mph - N/A   Overcast
9:55 PM 38.8 °F 31.2 °F 33.8 °F 82% 29.69 in 7.0 mi SSW 12.7 mph - N/A   Overcast
10:15 PM 39.2 °F 31.2 °F 34.0 °F 82% 29.70 in 4.0 mi SSW 13.8 mph - N/A   Haze
10:55 PM 39.6 °F 31.3 °F 34.2 °F 81% 29.70 in 4.0 mi SW 15.0 mph 18.4 mph N/A   Unknown
11:15 PM 40.1 °F 32.4 °F 34.0 °F 79% 29.71 in 10.0 mi WSW 13.8 mph - N/A   Clear
11:55 PM 40.6 °F 32.7 °F 34.7 °F 79% 29.72 in 7.0 mi WSW 15.0 mph 20.7 mph N/A   Unknown